sensor_id;sensor_type;location;lat;lon;timestamp;P1;durP1;ratioP1;P2;durP2;ratioP2
51692;SDS011;37777;53.066;21.638;2023-11-21T00:05:42;87.82;;;81.05;;
51692;SDS011;37777;53.066;21.638;2023-11-21T00:12:44;88.05;;;81.30;;
51692;SDS011;37777;53.066;21.638;2023-11-21T00:19:45;87.47;;;81.10;;
51692;SDS011;37777;53.066;21.638;2023-11-21T00:26:47;90.95;;;83.47;;
51692;SDS011;37777;53.066;21.638;2023-11-21T00:33:49;90.75;;;83.88;;
51692;SDS011;37777;53.066;21.638;2023-11-21T00:40:51;93.63;;;86.28;;
51692;SDS011;37777;53.066;21.638;2023-11-21T00:47:54;97.50;;;90.10;;
51692;SDS011;37777;53.066;21.638;2023-11-21T00:54:55;96.70;;;89.40;;
51692;SDS011;37777;53.066;21.638;2023-11-21T01:01:57;107.05;;;98.82;;
51692;SDS011;37777;53.066;21.638;2023-11-21T01:09:01;113.93;;;105.70;;
51692;SDS011;37777;53.066;21.638;2023-11-21T01:16:09;114.80;;;106.40;;
51692;SDS011;37777;53.066;21.638;2023-11-21T01:23:10;110.65;;;102.63;;
51692;SDS011;37777;53.066;21.638;2023-11-21T01:30:12;107.30;;;99.60;;
51692;SDS011;37777;53.066;21.638;2023-11-21T01:37:14;107.90;;;99.93;;
51692;SDS011;37777;53.066;21.638;2023-11-21T01:44:16;106.10;;;98.43;;
51692;SDS011;37777;53.066;21.638;2023-11-21T01:51:18;114.70;;;106.60;;
51692;SDS011;37777;53.066;21.638;2023-11-21T01:58:20;104.45;;;97.18;;
51692;SDS011;37777;53.066;21.638;2023-11-21T02:05:22;94.18;;;86.93;;
51692;SDS011;37777;53.066;21.638;2023-11-21T02:12:24;103.75;;;96.38;;
51692;SDS011;37777;53.066;21.638;2023-11-21T02:19:27;109.10;;;100.90;;
51692;SDS011;37777;53.066;21.638;2023-11-21T02:26:31;116.80;;;108.25;;
51692;SDS011;37777;53.066;21.638;2023-11-21T02:33:33;114.60;;;106.55;;
51692;SDS011;37777;53.066;21.638;2023-11-21T02:40:35;104.07;;;96.68;;
51692;SDS011;37777;53.066;21.638;2023-11-21T02:47:36;117.57;;;109.32;;
51692;SDS011;37777;53.066;21.638;2023-11-21T02:54:38;119.47;;;110.95;;
51692;SDS011;37777;53.066;21.638;2023-11-21T03:01:39;112.63;;;104.05;;
51692;SDS011;37777;53.066;21.638;2023-11-21T03:08:41;112.90;;;104.57;;
51692;SDS011;37777;53.066;21.638;2023-11-21T03:15:43;117.85;;;108.88;;
51692;SDS011;37777;53.066;21.638;2023-11-21T03:22:45;115.93;;;107.22;;
51692;SDS011;37777;53.066;21.638;2023-11-21T03:29:47;121.18;;;112.40;;
51692;SDS011;37777;53.066;21.638;2023-11-21T03:36:49;112.00;;;103.80;;
51692;SDS011;37777;53.066;21.638;2023-11-21T03:43:51;111.72;;;103.60;;
51692;SDS011;37777;53.066;21.638;2023-11-21T03:50:52;112.20;;;104.20;;
51692;SDS011;37777;53.066;21.638;2023-11-21T03:57:54;107.93;;;100.03;;
51692;SDS011;37777;53.066;21.638;2023-11-21T04:04:55;110.03;;;102.13;;
51692;SDS011;37777;53.066;21.638;2023-11-21T04:11:58;108.13;;;100.38;;
51692;SDS011;37777;53.066;21.638;2023-11-21T04:18:59;106.63;;;98.30;;
51692;SDS011;37777;53.066;21.638;2023-11-21T04:26:01;110.97;;;103.20;;
51692;SDS011;37777;53.066;21.638;2023-11-21T04:33:03;102.95;;;95.90;;
51692;SDS011;37777;53.066;21.638;2023-11-21T04:40:05;105.30;;;98.00;;
51692;SDS011;37777;53.066;21.638;2023-11-21T04:47:08;107.53;;;99.70;;
51692;SDS011;37777;53.066;21.638;2023-11-21T04:54:10;105.97;;;98.55;;
51692;SDS011;37777;53.066;21.638;2023-11-21T05:01:11;103.38;;;95.93;;
51692;SDS011;37777;53.066;21.638;2023-11-21T05:08:13;109.15;;;101.45;;
51692;SDS011;37777;53.066;21.638;2023-11-21T05:15:15;109.22;;;101.50;;
51692;SDS011;37777;53.066;21.638;2023-11-21T05:22:17;114.22;;;105.95;;
51692;SDS011;37777;53.066;21.638;2023-11-21T05:29:18;120.43;;;111.95;;
51692;SDS011;37777;53.066;21.638;2023-11-21T05:36:20;128.23;;;119.18;;
51692;SDS011;37777;53.066;21.638;2023-11-21T05:43:21;137.63;;;128.30;;
51692;SDS011;37777;53.066;21.638;2023-11-21T05:50:23;152.18;;;141.85;;
51692;SDS011;37777;53.066;21.638;2023-11-21T05:57:25;152.80;;;142.18;;
51692;SDS011;37777;53.066;21.638;2023-11-21T06:04:26;146.27;;;136.43;;
51692;SDS011;37777;53.066;21.638;2023-11-21T06:11:29;145.40;;;135.40;;
51692;SDS011;37777;53.066;21.638;2023-11-21T06:18:30;143.93;;;133.88;;
51692;SDS011;37777;53.066;21.638;2023-11-21T06:25:32;145.65;;;135.15;;
51692;SDS011;37777;53.066;21.638;2023-11-21T06:32:37;140.93;;;130.73;;
51692;SDS011;37777;53.066;21.638;2023-11-21T06:39:40;139.75;;;130.07;;
51692;SDS011;37777;53.066;21.638;2023-11-21T06:46:42;135.15;;;125.75;;
51692;SDS011;37777;53.066;21.638;2023-11-21T06:53:44;138.32;;;128.43;;
51692;SDS011;37777;53.066;21.638;2023-11-21T07:00:45;138.85;;;128.73;;
51692;SDS011;37777;53.066;21.638;2023-11-21T07:07:49;142.75;;;132.93;;
51692;SDS011;37777;53.066;21.638;2023-11-21T07:14:52;144.05;;;134.02;;
51692;SDS011;37777;53.066;21.638;2023-11-21T07:21:53;134.75;;;125.68;;
51692;SDS011;37777;53.066;21.638;2023-11-21T07:28:55;141.50;;;131.90;;
51692;SDS011;37777;53.066;21.638;2023-11-21T07:35:59;141.82;;;132.25;;
51692;SDS011;37777;53.066;21.638;2023-11-21T07:43:01;142.63;;;133.02;;
51692;SDS011;37777;53.066;21.638;2023-11-21T07:50:03;136.40;;;127.13;;
51692;SDS011;37777;53.066;21.638;2023-11-21T07:57:04;135.75;;;126.15;;
51692;SDS011;37777;53.066;21.638;2023-11-21T08:04:06;130.85;;;122.00;;
51692;SDS011;37777;53.066;21.638;2023-11-21T08:11:08;137.77;;;128.65;;
51692;SDS011;37777;53.066;21.638;2023-11-21T08:18:11;149.02;;;138.93;;
51692;SDS011;37777;53.066;21.638;2023-11-21T08:25:15;153.63;;;143.38;;
51692;SDS011;37777;53.066;21.638;2023-11-21T08:32:16;152.60;;;142.85;;
51692;SDS011;37777;53.066;21.638;2023-11-21T08:39:18;150.27;;;139.88;;
51692;SDS011;37777;53.066;21.638;2023-11-21T08:46:20;145.27;;;135.85;;
51692;SDS011;37777;53.066;21.638;2023-11-21T08:53:22;134.40;;;125.47;;
51692;SDS011;37777;53.066;21.638;2023-11-21T09:00:24;138.85;;;129.80;;
51692;SDS011;37777;53.066;21.638;2023-11-21T09:07:25;135.27;;;126.40;;
51692;SDS011;37777;53.066;21.638;2023-11-21T09:14:27;140.43;;;131.38;;
51692;SDS011;37777;53.066;21.638;2023-11-21T09:21:28;138.30;;;129.02;;
51692;SDS011;37777;53.066;21.638;2023-11-21T09:28:30;151.68;;;141.30;;
51692;SDS011;37777;53.066;21.638;2023-11-21T09:35:32;156.98;;;146.68;;
51692;SDS011;37777;53.066;21.638;2023-11-21T09:42:42;167.73;;;156.20;;
51692;SDS011;37777;53.066;21.638;2023-11-21T09:49:52;169.45;;;157.95;;
51692;SDS011;37777;53.066;21.638;2023-11-21T09:56:55;155.73;;;145.20;;
51692;SDS011;37777;53.066;21.638;2023-11-21T10:03:59;150.38;;;140.65;;
51692;SDS011;37777;53.066;21.638;2023-11-21T10:11:01;142.02;;;132.57;;
51692;SDS011;37777;53.066;21.638;2023-11-21T10:18:06;124.88;;;116.53;;
51692;SDS011;37777;53.066;21.638;2023-11-21T10:25:09;126.88;;;117.95;;
51692;SDS011;37777;53.066;21.638;2023-11-21T10:32:20;117.10;;;109.10;;
51692;SDS011;37777;53.066;21.638;2023-11-21T10:39:22;122.95;;;114.32;;
51692;SDS011;37777;53.066;21.638;2023-11-21T10:46:25;128.70;;;120.22;;
51692;SDS011;37777;53.066;21.638;2023-11-21T10:53:31;129.30;;;120.88;;
51692;SDS011;37777;53.066;21.638;2023-11-21T11:00:33;120.40;;;112.10;;
51692;SDS011;37777;53.066;21.638;2023-11-21T11:07:34;113.65;;;105.88;;
51692;SDS011;37777;53.066;21.638;2023-11-21T11:14:40;113.15;;;105.30;;
51692;SDS011;37777;53.066;21.638;2023-11-21T11:22:03;116.32;;;108.72;;
51692;SDS011;37777;53.066;21.638;2023-11-21T11:36:54;126.50;;;118.00;;
51692;SDS011;37777;53.066;21.638;2023-11-21T11:44:01;113.60;;;105.45;;
51692;SDS011;37777;53.066;21.638;2023-11-21T11:58:10;116.25;;;108.15;;
51692;SDS011;37777;53.066;21.638;2023-11-21T12:05:14;112.07;;;104.45;;
51692;SDS011;37777;53.066;21.638;2023-11-21T12:12:16;104.93;;;97.28;;
51692;SDS011;37777;53.066;21.638;2023-11-21T12:19:20;101.22;;;94.25;;
51692;SDS011;37777;53.066;21.638;2023-11-21T12:26:23;90.60;;;84.22;;
51692;SDS011;37777;53.066;21.638;2023-11-21T12:33:25;91.78;;;84.90;;
51692;SDS011;37777;53.066;21.638;2023-11-21T12:40:27;83.88;;;78.28;;
51692;SDS011;37777;53.066;21.638;2023-11-21T12:47:29;79.93;;;74.40;;
51692;SDS011;37777;53.066;21.638;2023-11-21T12:54:30;75.72;;;70.53;;
51692;SDS011;37777;53.066;21.638;2023-11-21T13:01:32;76.57;;;71.13;;
51692;SDS011;37777;53.066;21.638;2023-11-21T13:08:35;73.50;;;67.65;;
51692;SDS011;37777;53.066;21.638;2023-11-21T13:15:40;68.43;;;63.58;;
51692;SDS011;37777;53.066;21.638;2023-11-21T13:30:00;71.63;;;66.15;;
51692;SDS011;37777;53.066;21.638;2023-11-21T13:37:04;72.43;;;67.13;;
51692;SDS011;37777;53.066;21.638;2023-11-21T13:44:09;74.03;;;68.82;;
51692;SDS011;37777;53.066;21.638;2023-11-21T13:51:36;67.22;;;62.60;;
51692;SDS011;37777;53.066;21.638;2023-11-21T13:58:46;63.47;;;58.47;;
51692;SDS011;37777;53.066;21.638;2023-11-21T14:05:52;63.80;;;58.90;;
51692;SDS011;37777;53.066;21.638;2023-11-21T14:12:54;64.15;;;59.55;;
51692;SDS011;37777;53.066;21.638;2023-11-21T14:19:55;68.25;;;63.47;;
51692;SDS011;37777;53.066;21.638;2023-11-21T14:26:57;58.80;;;54.10;;
51692;SDS011;37777;53.066;21.638;2023-11-21T14:33:59;56.03;;;51.25;;
51692;SDS011;37777;53.066;21.638;2023-11-21T14:41:03;55.58;;;51.50;;
51692;SDS011;37777;53.066;21.638;2023-11-21T14:48:05;57.92;;;53.90;;
51692;SDS011;37777;53.066;21.638;2023-11-21T14:55:07;63.20;;;58.50;;
51692;SDS011;37777;53.066;21.638;2023-11-21T15:02:32;61.90;;;57.60;;
51692;SDS011;37777;53.066;21.638;2023-11-21T15:09:52;57.72;;;53.20;;
51692;SDS011;37777;53.066;21.638;2023-11-21T15:16:54;62.83;;;58.55;;
51692;SDS011;37777;53.066;21.638;2023-11-21T15:24:04;55.58;;;51.60;;
51692;SDS011;37777;53.066;21.638;2023-11-21T15:31:07;52.50;;;48.65;;
51692;SDS011;37777;53.066;21.638;2023-11-21T15:38:09;53.47;;;49.53;;
51692;SDS011;37777;53.066;21.638;2023-11-21T15:45:11;62.30;;;57.80;;
51692;SDS011;37777;53.066;21.638;2023-11-21T15:52:13;65.03;;;60.38;;
51692;SDS011;37777;53.066;21.638;2023-11-21T15:59:14;77.30;;;72.43;;
51692;SDS011;37777;53.066;21.638;2023-11-21T16:06:17;80.30;;;75.25;;
51692;SDS011;37777;53.066;21.638;2023-11-21T16:13:19;75.60;;;70.78;;
51692;SDS011;37777;53.066;21.638;2023-11-21T16:20:21;74.40;;;69.25;;
51692;SDS011;37777;53.066;21.638;2023-11-21T16:27:22;76.50;;;70.70;;
51692;SDS011;37777;53.066;21.638;2023-11-21T16:34:24;73.40;;;68.45;;
51692;SDS011;37777;53.066;21.638;2023-11-21T16:41:26;65.88;;;61.45;;
51692;SDS011;37777;53.066;21.638;2023-11-21T16:48:27;65.50;;;60.90;;
51692;SDS011;37777;53.066;21.638;2023-11-21T16:55:29;55.47;;;51.60;;
51692;SDS011;37777;53.066;21.638;2023-11-21T17:02:31;52.80;;;49.30;;
51692;SDS011;37777;53.066;21.638;2023-11-21T17:09:32;57.65;;;53.65;;
51692;SDS011;37777;53.066;21.638;2023-11-21T17:16:34;59.53;;;55.53;;
51692;SDS011;37777;53.066;21.638;2023-11-21T17:23:36;66.50;;;62.10;;
51692;SDS011;37777;53.066;21.638;2023-11-21T17:30:38;68.60;;;64.15;;
51692;SDS011;37777;53.066;21.638;2023-11-21T17:37:40;75.03;;;69.90;;
51692;SDS011;37777;53.066;21.638;2023-11-21T17:44:41;78.80;;;73.38;;
51692;SDS011;37777;53.066;21.638;2023-11-21T17:51:43;71.00;;;66.35;;
51692;SDS011;37777;53.066;21.638;2023-11-21T17:58:45;68.70;;;64.07;;
51692;SDS011;37777;53.066;21.638;2023-11-21T18:05:47;55.83;;;51.97;;
51692;SDS011;37777;53.066;21.638;2023-11-21T18:12:49;51.35;;;47.45;;
51692;SDS011;37777;53.066;21.638;2023-11-21T18:19:50;50.55;;;47.05;;
51692;SDS011;37777;53.066;21.638;2023-11-21T18:26:56;51.75;;;48.20;;
51692;SDS011;37777;53.066;21.638;2023-11-21T18:33:57;56.72;;;52.83;;
51692;SDS011;37777;53.066;21.638;2023-11-21T18:40:59;59.03;;;54.83;;
51692;SDS011;37777;53.066;21.638;2023-11-21T18:48:00;62.78;;;58.22;;
51692;SDS011;37777;53.066;21.638;2023-11-21T18:55:02;68.80;;;64.38;;
51692;SDS011;37777;53.066;21.638;2023-11-21T19:02:04;60.63;;;56.63;;
51692;SDS011;37777;53.066;21.638;2023-11-21T19:09:14;49.47;;;46.05;;
51692;SDS011;37777;53.066;21.638;2023-11-21T19:16:15;144.48;;;135.05;;
51692;SDS011;37777;53.066;21.638;2023-11-21T19:23:17;144.23;;;135.43;;
51692;SDS011;37777;53.066;21.638;2023-11-21T19:30:19;144.98;;;136.18;;
51692;SDS011;37777;53.066;21.638;2023-11-21T19:37:21;138.57;;;130.38;;
51692;SDS011;37777;53.066;21.638;2023-11-21T19:44:25;154.88;;;145.70;;
51692;SDS011;37777;53.066;21.638;2023-11-21T19:51:26;212.23;;;199.70;;
51692;SDS011;37777;53.066;21.638;2023-11-21T19:58:28;248.73;;;234.32;;
51692;SDS011;37777;53.066;21.638;2023-11-21T20:05:30;240.07;;;226.25;;
51692;SDS011;37777;53.066;21.638;2023-11-21T20:12:33;239.25;;;225.65;;
51692;SDS011;37777;53.066;21.638;2023-11-21T20:19:35;227.52;;;214.57;;
51692;SDS011;37777;53.066;21.638;2023-11-21T20:26:37;225.82;;;212.02;;
51692;SDS011;37777;53.066;21.638;2023-11-21T20:33:42;265.60;;;249.93;;
51692;SDS011;37777;53.066;21.638;2023-11-21T20:40:44;273.40;;;257.42;;
51692;SDS011;37777;53.066;21.638;2023-11-21T20:47:45;235.20;;;221.73;;
51692;SDS011;37777;53.066;21.638;2023-11-21T20:54:47;191.68;;;180.43;;
51692;SDS011;37777;53.066;21.638;2023-11-21T21:01:49;215.30;;;202.77;;
51692;SDS011;37777;53.066;21.638;2023-11-21T21:08:51;197.15;;;185.95;;
51692;SDS011;37777;53.066;21.638;2023-11-21T21:15:54;205.93;;;193.85;;
51692;SDS011;37777;53.066;21.638;2023-11-21T21:22:56;255.80;;;240.60;;
51692;SDS011;37777;53.066;21.638;2023-11-21T21:29:58;210.07;;;197.40;;
51692;SDS011;37777;53.066;21.638;2023-11-21T21:36:59;197.68;;;185.70;;
51692;SDS011;37777;53.066;21.638;2023-11-21T21:44:01;190.52;;;178.68;;
51692;SDS011;37777;53.066;21.638;2023-11-21T21:51:02;195.95;;;184.20;;
51692;SDS011;37777;53.066;21.638;2023-11-21T21:58:04;165.07;;;154.80;;
51692;SDS011;37777;53.066;21.638;2023-11-21T22:05:11;154.15;;;144.80;;
51692;SDS011;37777;53.066;21.638;2023-11-21T22:12:13;168.98;;;159.02;;
51692;SDS011;37777;53.066;21.638;2023-11-21T22:19:15;171.82;;;161.50;;
51692;SDS011;37777;53.066;21.638;2023-11-21T22:26:16;154.63;;;145.45;;
51692;SDS011;37777;53.066;21.638;2023-11-21T22:33:18;160.57;;;150.70;;
51692;SDS011;37777;53.066;21.638;2023-11-21T22:40:21;169.52;;;159.60;;
51692;SDS011;37777;53.066;21.638;2023-11-21T22:47:23;183.63;;;173.05;;
51692;SDS011;37777;53.066;21.638;2023-11-21T22:54:26;196.45;;;185.20;;
51692;SDS011;37777;53.066;21.638;2023-11-21T23:01:28;198.40;;;186.98;;
51692;SDS011;37777;53.066;21.638;2023-11-21T23:08:30;196.57;;;185.45;;
51692;SDS011;37777;53.066;21.638;2023-11-21T23:15:34;182.38;;;171.73;;
51692;SDS011;37777;53.066;21.638;2023-11-21T23:22:36;186.18;;;175.43;;
51692;SDS011;37777;53.066;21.638;2023-11-21T23:29:41;180.00;;;169.63;;
51692;SDS011;37777;53.066;21.638;2023-11-21T23:45:07;170.75;;;160.77;;
51692;SDS011;37777;53.066;21.638;2023-11-21T23:52:10;169.85;;;159.80;;
51692;SDS011;37777;53.066;21.638;2023-11-21T23:59:11;162.63;;;153.00;;
